Time;durP1;ratioP1;P1;durP2;ratioP2;P2;SDS_P1;SDS_P2;PMS_P1;PMS_P2;Temp;Humidity;BMP_temperature;BMP_pressure;BME280_temperature;BME280_humidity;BME280_pressure;Samples;Min_cycle;Max_cycle;Signal;HPM_P1;HPM_P2
2024/04/05 00:01:32;;;;;;;1999.90;999.90;;;;;;;;;;5029120;28;20114;-87
2024/04/05 00:03:58;;;;;;;1999.90;999.90;;;;;;;;;;5030882;28;20105;-87
2024/04/05 00:06:25;;;;;;;1999.90;999.90;;;;;;;;;;5031383;28;20077;-86
2024/04/05 00:08:52;;;;;;;1999.90;999.90;;;;;;;;;;5040039;28;20059;-87
2024/04/05 00:11:19;;;;;;;1999.90;999.90;;;;;;;;;;5033763;28;20060;-91
2024/04/05 00:13:44;;;;;;;1999.90;999.90;;;;;;;;;;5033999;28;20679;-89
2024/04/05 00:16:11;;;;;;;1999.90;999.90;;;;;;;;;;5032938;28;20060;-88
2024/04/05 00:18:36;;;;;;;1999.90;999.90;;;;;;;;;;5051037;28;20071;-87
2024/04/05 00:21:04;;;;;;;1999.90;999.90;;;;;;;;;;5050346;28;20045;-88
2024/04/05 00:23:31;;;;;;;1999.90;999.90;;;;;;;;;;5045605;28;20144;-87
2024/04/05 00:25:59;;;;;;;1999.90;999.90;;;;;;;;;;5035371;28;20099;-88
2024/04/05 00:28:27;;;;;;;1999.90;999.90;;;;;;;;;;5034229;28;20474;-88
2024/04/05 00:30:53;;;;;;;1999.90;999.90;;;;;;;;;;5025749;28;20049;-88
2024/04/05 00:33:19;;;;;;;1999.90;999.90;;;;;;;;;;5032113;28;20559;-87
2024/04/05 00:35:48;;;;;;;1999.90;999.90;;;;;;;;;;5025378;28;20137;-88
2024/04/05 00:38:14;;;;;;;1999.90;999.90;;;;;;;;;;5030185;28;20506;-88
2024/04/05 00:40:40;;;;;;;1999.90;999.90;;;;;;;;;;5035275;28;20050;-87
2024/04/05 00:43:07;;;;;;;1999.90;999.90;;;;;;;;;;5033158;28;20065;-88
2024/04/05 00:45:39;;;;;;;1999.90;999.90;;;;;;;;;;5029437;28;20080;-88
2024/04/05 00:48:06;;;;;;;1999.90;999.90;;;;;;;;;;5033994;28;20061;-87
2024/04/05 00:50:33;;;;;;;1999.90;999.90;;;;;;;;;;5041373;28;20056;-88
2024/04/05 00:53:00;;;;;;;1999.90;999.90;;;;;;;;;;5037394;28;20132;-88
2024/04/05 00:55:27;;;;;;;1999.90;999.90;;;;;;;;;;5034198;28;20145;-88
2024/04/05 00:57:53;;;;;;;1999.90;999.90;;;;;;;;;;5030853;28;20410;-90
2024/04/05 01:00:24;;;;;;;1999.90;999.90;;;;;;;;;;5030920;28;20057;-89
2024/04/05 01:02:49;;;;;;;1999.90;999.90;;;;;;;;;;5043175;28;20495;-88
2024/04/05 01:05:16;;;;;;;1999.90;999.90;;;;;;;;;;5035846;28;20053;-90
2024/04/05 01:07:42;;;;;;;1999.90;999.90;;;;;;;;;;5030008;28;20050;-89
2024/04/05 01:10:08;;;;;;;1999.90;999.90;;;;;;;;;;5037233;28;20076;-88
2024/04/05 01:12:34;;;;;;;1999.90;999.90;;;;;;;;;;5032295;28;20057;-89
2024/04/05 01:15:00;;;;;;;1999.90;999.90;;;;;;;;;;5042770;28;20037;-89
2024/04/05 01:17:27;;;;;;;1999.90;999.90;;;;;;;;;;5035669;28;20107;-87
2024/04/05 01:19:57;;;;;;;1999.90;999.90;;;;;;;;;;5036225;28;20053;-87
2024/04/05 01:22:27;;;;;;;1999.90;999.90;;;;;;;;;;5032507;28;20053;-88
2024/04/05 01:24:55;;;;;;;1999.90;999.90;;;;;;;;;;5036352;28;20041;-87
2024/04/05 01:27:20;;;;;;;1999.90;999.90;;;;;;;;;;5034627;28;20053;-89
2024/04/05 01:29:47;;;;;;;1999.90;999.90;;;;;;;;;;5038795;28;20133;-89
2024/04/05 01:32:12;;;;;;;1999.90;999.90;;;;;;;;;;5042304;28;20046;-89
2024/04/05 01:34:39;;;;;;;1999.90;999.90;;;;;;;;;;5043876;28;20060;-89
2024/04/05 01:37:05;;;;;;;1999.90;999.90;;;;;;;;;;5041563;28;20128;-89
2024/04/05 01:39:32;;;;;;;1999.90;999.90;;;;;;;;;;5037282;28;20584;-89
2024/04/05 01:41:59;;;;;;;1999.90;999.90;;;;;;;;;;5036972;28;20050;-89
2024/04/05 01:44:53;;;;;;;1999.90;999.90;;;;;;;;;;5033812;28;20053;-88
2024/04/05 01:47:19;;;;;;;1999.90;999.90;;;;;;;;;;5032339;28;20055;-89
2024/04/05 01:49:46;;;;;;;1999.90;999.90;;;;;;;;;;5038823;28;20052;-88
2024/04/05 01:52:11;;;;;;;1999.90;999.90;;;;;;;;;;5045150;28;20037;-88
2024/04/05 01:54:37;;;;;;;1999.90;999.90;;;;;;;;;;5040915;28;20045;-89
2024/04/05 01:57:05;;;;;;;1999.90;999.90;;;;;;;;;;5043967;28;20562;-90
2024/04/05 01:59:31;;;;;;;1999.90;999.90;;;;;;;;;;5034059;28;20432;-89
2024/04/05 02:01:57;;;;;;;1999.90;999.90;;;;;;;;;;5041658;28;20495;-88
2024/04/05 02:04:23;;;;;;;1999.90;999.90;;;;;;;;;;5038263;28;20080;-88
2024/04/05 02:06:49;;;;;;;1999.90;999.90;;;;;;;;;;5039103;28;20521;-89
2024/04/05 02:09:16;;;;;;;1999.90;999.90;;;;;;;;;;5044271;28;20049;-88
2024/04/05 02:11:41;;;;;;;1999.90;999.90;;;;;;;;;;5039263;28;20402;-89
2024/04/05 02:14:14;;;;;;;1999.90;999.90;;;;;;;;;;5040462;28;20059;-88
2024/04/05 02:16:40;;;;;;;1999.90;999.90;;;;;;;;;;5032684;28;20041;-88
2024/04/05 02:19:07;;;;;;;1999.90;999.90;;;;;;;;;;5032744;28;20056;-87
2024/04/05 02:21:32;;;;;;;1999.90;999.90;;;;;;;;;;5040930;28;20054;-88
2024/04/05 02:23:59;;;;;;;1999.90;999.90;;;;;;;;;;5036287;28;20049;-86
2024/04/05 02:26:24;;;;;;;1999.90;999.90;;;;;;;;;;5040660;28;20053;-87
2024/04/05 02:28:51;;;;;;;1999.90;999.90;;;;;;;;;;5039501;28;20053;-87
2024/04/05 02:31:17;;;;;;;1999.90;999.90;;;;;;;;;;5033089;28;20060;-86
2024/04/05 02:33:44;;;;;;;1999.90;999.90;;;;;;;;;;5033437;28;20049;-87
2024/04/05 02:36:09;;;;;;;1999.90;999.90;;;;;;;;;;5043151;28;20055;-89
2024/04/05 02:38:36;;;;;;;1999.90;999.90;;;;;;;;;;5032902;28;20136;-89
2024/04/05 02:41:04;;;;;;;1999.90;999.90;;;;;;;;;;5036529;28;20051;-90
2024/04/05 02:43:30;;;;;;;1999.90;999.90;;;;;;;;;;5042354;28;20162;-88
2024/04/05 02:45:56;;;;;;;1999.90;999.90;;;;;;;;;;5036868;28;20045;-89
2024/04/05 02:48:24;;;;;;;1999.90;999.90;;;;;;;;;;5032150;28;20140;-89
2024/04/05 02:50:49;;;;;;;1999.90;999.90;;;;;;;;;;5037534;28;20057;-90
2024/04/05 02:53:16;;;;;;;1999.90;999.90;;;;;;;;;;5037771;28;20092;-88
2024/04/05 02:55:41;;;;;;;1999.90;999.90;;;;;;;;;;5025614;28;20041;-89
2024/04/05 02:58:09;;;;;;;1999.90;999.90;;;;;;;;;;5040515;28;20392;-89
2024/04/05 03:00:35;;;;;;;1999.90;999.90;;;;;;;;;;5035616;28;20506;-90
2024/04/05 03:03:02;;;;;;;1999.90;999.90;;;;;;;;;;5036921;28;20045;-90
2024/04/05 03:05:29;;;;;;;1999.90;999.90;;;;;;;;;;5029974;28;20136;-90
2024/04/05 03:07:55;;;;;;;1999.90;999.90;;;;;;;;;;5038273;28;20050;-89
2024/04/05 03:10:21;;;;;;;1999.90;999.90;;;;;;;;;;5038396;28;20059;-90
2024/04/05 03:12:47;;;;;;;1999.90;999.90;;;;;;;;;;5036685;28;20133;-88
2024/04/05 03:15:13;;;;;;;1999.90;999.90;;;;;;;;;;5041060;28;20096;-88
2024/04/05 03:17:39;;;;;;;1999.90;999.90;;;;;;;;;;5032647;28;20117;-90
2024/04/05 03:20:06;;;;;;;1999.90;999.90;;;;;;;;;;5038442;28;20048;-90
2024/04/05 03:22:34;;;;;;;1999.90;999.90;;;;;;;;;;5032668;28;20484;-88
2024/04/05 03:24:59;;;;;;;1999.90;999.90;;;;;;;;;;5035080;28;20042;-89
2024/04/05 03:27:26;;;;;;;1999.90;999.90;;;;;;;;;;5035021;28;20140;-89
2024/04/05 03:29:51;;;;;;;1999.90;999.90;;;;;;;;;;5035192;28;20060;-89
2024/04/05 03:32:18;;;;;;;1999.90;999.90;;;;;;;;;;5034192;28;20053;-88
2024/04/05 03:34:46;;;;;;;1999.90;999.90;;;;;;;;;;5036459;28;20059;-89
2024/04/05 03:37:12;;;;;;;1999.90;999.90;;;;;;;;;;5039205;28;20080;-88
2024/04/05 03:39:40;;;;;;;1999.90;999.90;;;;;;;;;;5036330;28;20053;-88
2024/04/05 03:42:07;;;;;;;1999.90;999.90;;;;;;;;;;5037457;28;20051;-88
2024/04/05 03:44:33;;;;;;;1999.90;999.90;;;;;;;;;;5042911;28;20060;-89
2024/04/05 03:47:01;;;;;;;1999.90;999.90;;;;;;;;;;5030967;28;20463;-87
2024/04/05 03:49:28;;;;;;;1999.90;999.90;;;;;;;;;;5030871;28;20045;-88
2024/04/05 03:51:54;;;;;;;1999.90;999.90;;;;;;;;;;5038276;28;20407;-89
2024/04/05 03:54:21;;;;;;;1999.90;999.90;;;;;;;;;;5044075;28;20135;-89
2024/04/05 03:56:48;;;;;;;1999.90;999.90;;;;;;;;;;5039742;28;20044;-89
2024/04/05 03:59:14;;;;;;;1999.90;999.90;;;;;;;;;;5028403;28;20496;-90
2024/04/05 04:01:40;;;;;;;1999.90;999.90;;;;;;;;;;5039868;28;20056;-89
2024/04/05 04:04:06;;;;;;;1999.90;999.90;;;;;;;;;;5035827;28;20049;-90
2024/04/05 04:06:32;;;;;;;1999.90;999.90;;;;;;;;;;5036029;28;20108;-89
2024/04/05 04:08:58;;;;;;;1999.90;999.90;;;;;;;;;;5039200;28;20080;-89
2024/04/05 04:11:24;;;;;;;1999.90;999.90;;;;;;;;;;5035061;28;20057;-90
2024/04/05 04:13:52;;;;;;;1999.90;999.90;;;;;;;;;;5021822;28;20053;-91
2024/04/05 04:16:18;;;;;;;1999.90;999.90;;;;;;;;;;5038525;28;20128;-90
2024/04/05 04:18:46;;;;;;;1999.90;999.90;;;;;;;;;;5037475;28;20129;-90
2024/04/05 04:21:12;;;;;;;1999.90;999.90;;;;;;;;;;5032717;28;20495;-89
2024/04/05 04:23:38;;;;;;;1999.90;999.90;;;;;;;;;;5033957;28;20057;-89
2024/04/05 04:26:05;;;;;;;1999.90;999.90;;;;;;;;;;5045315;28;20048;-89
2024/04/05 04:28:32;;;;;;;1999.90;999.90;;;;;;;;;;5038962;28;20054;-89
2024/04/05 04:31:15;;;;;;;1999.90;999.90;;;;;;;;;;5029767;28;20053;-91
2024/04/05 04:33:41;;;;;;;1999.90;999.90;;;;;;;;;;5032954;28;20080;-91
2024/04/05 04:36:07;;;;;;;1999.90;999.90;;;;;;;;;;5039687;28;20045;-90
2024/04/05 04:38:34;;;;;;;1999.90;999.90;;;;;;;;;;5043503;28;20051;-89
2024/04/05 04:40:59;;;;;;;1999.90;999.90;;;;;;;;;;5028800;28;20057;-90
2024/04/05 04:43:26;;;;;;;1999.90;999.90;;;;;;;;;;5043185;28;20168;-90
2024/04/05 04:45:52;;;;;;;1999.90;999.90;;;;;;;;;;5035948;28;20050;-91
2024/04/05 04:48:20;;;;;;;1999.90;999.90;;;;;;;;;;5036679;28;20392;-91
2024/04/05 04:50:47;;;;;;;1999.90;999.90;;;;;;;;;;5041467;28;20059;-91
2024/04/05 04:53:12;;;;;;;1999.90;999.90;;;;;;;;;;5038934;28;20522;-91
2024/04/05 04:55:41;;;;;;;1999.90;999.90;;;;;;;;;;5035821;28;20124;-92
2024/04/05 04:58:07;;;;;;;1999.90;999.90;;;;;;;;;;5041348;28;20053;-90
2024/04/05 05:00:33;;;;;;;1999.90;999.90;;;;;;;;;;5034331;28;20064;-88
2024/04/05 05:02:59;;;;;;;1999.90;999.90;;;;;;;;;;5047266;28;20053;-88
2024/04/05 05:05:27;;;;;;;1999.90;999.90;;;;;;;;;;5043994;28;20055;-91
2024/04/05 05:07:52;;;;;;;1999.90;999.90;;;;;;;;;;5038097;28;20041;-87
2024/04/05 05:10:19;;;;;;;1999.90;999.90;;;;;;;;;;5045239;28;20045;-87
2024/04/05 05:12:44;;;;;;;1999.90;999.90;;;;;;;;;;5041173;28;20053;-87
2024/04/05 05:15:11;;;;;;;1999.90;999.90;;;;;;;;;;5035112;28;20046;-88
2024/04/05 05:17:37;;;;;;;1999.90;999.90;;;;;;;;;;5039099;28;20065;-87
2024/04/05 05:20:06;;;;;;;1999.90;999.90;;;;;;;;;;5026256;28;20041;-88
2024/04/05 05:22:33;;;;;;;1999.90;999.90;;;;;;;;;;5041062;28;20053;-87
2024/04/05 05:25:00;;;;;;;1999.90;999.90;;;;;;;;;;5038396;28;20057;-88
2024/04/05 05:27:25;;;;;;;1999.90;999.90;;;;;;;;;;5038905;28;20050;-89
2024/04/05 05:29:58;;;;;;;1999.90;999.90;;;;;;;;;;5041752;28;20049;-88
2024/04/05 05:32:24;;;;;;;1999.90;999.90;;;;;;;;;;5039053;28;20149;-91
2024/04/05 05:34:50;;;;;;;1999.90;999.90;;;;;;;;;;5036512;28;20092;-87
2024/04/05 05:37:16;;;;;;;1999.90;999.90;;;;;;;;;;5037779;28;20054;-85
2024/04/05 05:39:44;;;;;;;1999.90;999.90;;;;;;;;;;5039776;28;20342;-85
2024/04/05 05:42:10;;;;;;;1999.90;999.90;;;;;;;;;;5024629;28;20133;-88
2024/04/05 05:44:36;;;;;;;1999.90;999.90;;;;;;;;;;5028342;28;20132;-87
2024/04/05 05:47:02;;;;;;;1999.90;999.90;;;;;;;;;;5031630;28;20042;-87
2024/04/05 05:49:29;;;;;;;1999.90;999.90;;;;;;;;;;5047501;28;20136;-88
2024/04/05 05:51:54;;;;;;;1999.90;999.90;;;;;;;;;;5036806;28;20412;-87
2024/04/05 05:54:21;;;;;;;1999.90;999.90;;;;;;;;;;5020508;28;20056;-90
2024/04/05 05:56:49;;;;;;;1999.90;999.90;;;;;;;;;;5020021;28;20120;-89
2024/04/05 05:59:15;;;;;;;1999.90;999.90;;;;;;;;;;5033419;28;20052;-88
2024/04/05 06:01:41;;;;;;;1999.90;999.90;;;;;;;;;;5039470;28;20072;-88
2024/04/05 06:04:07;;;;;;;1999.90;999.90;;;;;;;;;;5036414;28;20056;-88
2024/04/05 06:06:33;;;;;;;1999.90;999.90;;;;;;;;;;5034789;28;20053;-89
2024/04/05 06:08:59;;;;;;;1999.90;999.90;;;;;;;;;;5032085;28;20203;-80
2024/04/05 06:11:25;;;;;;;1999.90;999.90;;;;;;;;;;5035044;28;20053;-79
2024/04/05 06:13:54;;;;;;;1999.90;999.90;;;;;;;;;;5030051;28;20053;-80
2024/04/05 06:16:19;;;;;;;1999.90;999.90;;;;;;;;;;5032932;28;20049;-79
2024/04/05 06:18:46;;;;;;;1999.90;999.90;;;;;;;;;;5034421;28;20056;-80
2024/04/05 06:21:11;;;;;;;1999.90;999.90;;;;;;;;;;5032973;28;20053;-79
2024/04/05 06:23:38;;;;;;;1999.90;999.90;;;;;;;;;;5039223;28;20049;-80
2024/04/05 06:26:04;;;;;;;1999.90;999.90;;;;;;;;;;5029564;28;20050;-80
2024/04/05 06:28:32;;;;;;;1999.90;999.90;;;;;;;;;;5036525;28;20076;-80
2024/04/05 06:31:00;;;;;;;1999.90;999.90;;;;;;;;;;5037113;28;20057;-80
2024/04/05 06:33:27;;;;;;;1999.90;999.90;;;;;;;;;;5032333;28;20068;-80
2024/04/05 06:35:58;;;;;;;1999.90;999.90;;;;;;;;;;5035499;28;20059;-79
2024/04/05 06:38:25;;;;;;;1999.90;999.90;;;;;;;;;;5027440;28;20379;-80
2024/04/05 06:40:56;;;;;;;1999.90;999.90;;;;;;;;;;5020137;28;20046;-80
2024/04/05 06:43:22;;;;;;;1999.90;999.90;;;;;;;;;;5026760;28;20049;-80
2024/04/05 06:45:55;;;;;;;1999.90;999.90;;;;;;;;;;5029983;28;20048;-80
2024/04/05 06:48:23;;;;;;;1999.90;999.90;;;;;;;;;;5032936;28;20057;-80
2024/04/05 06:50:49;;;;;;;1999.90;999.90;;;;;;;;;;5036981;28;20388;-80
2024/04/05 06:53:16;;;;;;;1999.90;999.90;;;;;;;;;;5040116;28;20131;-80
2024/04/05 06:55:46;;;;;;;1999.90;999.90;;;;;;;;;;5029352;28;20041;-80
2024/04/05 06:58:13;;;;;;;1999.90;999.90;;;;;;;;;;5031620;28;20050;-80
2024/04/05 07:00:39;;;;;;;1999.90;999.90;;;;;;;;;;5034531;28;20053;-80
2024/04/05 07:03:06;;;;;;;1999.90;999.90;;;;;;;;;;5035522;28;20045;-80
2024/04/05 07:05:33;;;;;;;1999.90;999.90;;;;;;;;;;5031074;28;20058;-81
2024/04/05 07:08:00;;;;;;;1999.90;999.90;;;;;;;;;;5032919;28;20056;-81
2024/04/05 07:10:27;;;;;;;1999.90;999.90;;;;;;;;;;5038569;28;20495;-81
2024/04/05 07:12:53;;;;;;;1999.90;999.90;;;;;;;;;;5042417;28;20053;-81
2024/04/05 07:15:20;;;;;;;1999.90;999.90;;;;;;;;;;5034451;28;20057;-81
2024/04/05 07:17:49;;;;;;;1999.90;999.90;;;;;;;;;;5031463;28;20045;-82
2024/04/05 07:20:15;;;;;;;1999.90;999.90;;;;;;;;;;5039478;28;20065;-87
2024/04/05 07:22:43;;;;;;;1999.90;999.90;;;;;;;;;;5029626;28;20151;-86
2024/04/05 07:25:09;;;;;;;1999.90;999.90;;;;;;;;;;5043503;28;20115;-89
2024/04/05 07:27:36;;;;;;;1999.90;999.90;;;;;;;;;;5040523;28;20482;-87
2024/04/05 07:30:03;;;;;;;1999.90;999.90;;;;;;;;;;5032157;28;21001;-87
2024/04/05 07:32:29;;;;;;;1999.90;999.90;;;;;;;;;;5033109;28;20057;-85
2024/04/05 07:34:55;;;;;;;1999.90;999.90;;;;;;;;;;5037598;28;20053;-83
2024/04/05 07:37:22;;;;;;;1999.90;999.90;;;;;;;;;;5035904;28;20041;-85
2024/04/05 07:39:51;;;;;;;1999.90;999.90;;;;;;;;;;5035679;28;20046;-85
2024/04/05 07:42:19;;;;;;;1999.90;999.90;;;;;;;;;;5039306;28;20061;-85
2024/04/05 07:44:45;;;;;;;1999.90;999.90;;;;;;;;;;5032578;28;20057;-85
2024/04/05 07:47:12;;;;;;;1999.90;999.90;;;;;;;;;;5035121;28;20059;-82
2024/04/05 07:49:38;;;;;;;1999.90;999.90;;;;;;;;;;5033879;28;20042;-83
2024/04/05 07:52:05;;;;;;;1999.90;999.90;;;;;;;;;;5033087;28;20496;-83
2024/04/05 07:54:31;;;;;;;1999.90;999.90;;;;;;;;;;5032333;28;20049;-83
2024/04/05 07:56:59;;;;;;;1999.90;999.90;;;;;;;;;;5032484;28;20051;-84
2024/04/05 07:59:24;;;;;;;1999.90;999.90;;;;;;;;;;5040310;28;20049;-83
2024/04/05 08:01:51;;;;;;;1999.90;999.90;;;;;;;;;;5037903;28;20090;-84
2024/04/05 08:04:17;;;;;;;1999.90;999.90;;;;;;;;;;5037250;28;20063;-84
2024/04/05 08:06:44;;;;;;;1999.90;999.90;;;;;;;;;;5033543;28;20071;-86
2024/04/05 08:09:11;;;;;;;1999.90;999.90;;;;;;;;;;5034946;28;20068;-83
2024/04/05 08:11:38;;;;;;;1999.90;999.90;;;;;;;;;;5039061;28;20053;-91
2024/04/05 08:14:24;;;;;;;1999.90;999.90;;;;;;;;;;5032453;28;20045;-91
2024/04/05 08:16:50;;;;;;;1999.90;999.90;;;;;;;;;;5028453;28;20057;-86
2024/04/05 08:19:16;;;;;;;1999.90;999.90;;;;;;;;;;5032959;28;20050;-86
2024/04/05 08:21:43;;;;;;;1999.90;999.90;;;;;;;;;;5033233;28;20061;-90
2024/04/05 08:24:10;;;;;;;1999.90;999.90;;;;;;;;;;5033291;28;20092;-86
2024/04/05 08:26:37;;;;;;;1999.90;999.90;;;;;;;;;;5036292;28;20049;-89
2024/04/05 08:29:02;;;;;;;1999.90;999.90;;;;;;;;;;5031148;28;20678;-87
2024/04/05 08:31:30;;;;;;;1999.90;999.90;;;;;;;;;;5036737;28;20099;-85
2024/04/05 08:33:56;;;;;;;1999.90;999.90;;;;;;;;;;5035648;28;20084;-85
2024/04/05 08:36:23;;;;;;;1999.90;999.90;;;;;;;;;;5028964;28;20081;-90
2024/04/05 08:38:48;;;;;;;1999.90;999.90;;;;;;;;;;5034736;28;20057;-89
2024/04/05 08:41:18;;;;;;;1999.90;999.90;;;;;;;;;;5044825;28;20060;-87
2024/04/05 08:43:47;;;;;;;1999.90;999.90;;;;;;;;;;5037370;28;20461;-92
2024/04/05 08:46:14;;;;;;;1999.90;999.90;;;;;;;;;;5043951;28;20042;-86
2024/04/05 08:48:43;;;;;;;1999.90;999.90;;;;;;;;;;5037488;28;20554;-86
2024/04/05 08:51:13;;;;;;;1999.90;999.90;;;;;;;;;;5036816;28;20053;-91
2024/04/05 08:53:38;;;;;;;1999.90;999.90;;;;;;;;;;5037424;28;20077;-84
2024/04/05 08:56:07;;;;;;;1999.90;999.90;;;;;;;;;;5038019;28;20480;-84
2024/04/05 08:58:33;;;;;;;1999.90;999.90;;;;;;;;;;5053763;28;20045;-84
2024/04/05 09:01:01;;;;;;;1999.90;999.90;;;;;;;;;;5051043;28;20053;-83
2024/04/05 09:03:27;;;;;;;1999.90;999.90;;;;;;;;;;5035988;28;20056;-84
2024/04/05 09:05:56;;;;;;;1999.90;999.90;;;;;;;;;;5048824;28;20052;-85
2024/04/05 09:08:21;;;;;;;1999.90;999.90;;;;;;;;;;5040258;28;20064;-85
2024/04/05 09:10:51;;;;;;;1999.90;999.90;;;;;;;;;;5031363;28;20049;-84
2024/04/05 09:13:17;;;;;;;1999.90;999.90;;;;;;;;;;5033225;28;20137;-85
2024/04/05 09:15:50;;;;;;;1999.90;999.90;;;;;;;;;;5035613;28;20077;-86
2024/04/05 09:18:23;;;;;;;1999.90;999.90;;;;;;;;;;5034772;28;20089;-86
2024/04/05 09:20:50;;;;;;;1999.90;999.90;;;;;;;;;;5040828;28;20076;-85
2024/04/05 09:23:17;;;;;;;1999.90;999.90;;;;;;;;;;5029875;28;20068;-85
2024/04/05 09:25:44;;;;;;;1999.90;999.90;;;;;;;;;;5028713;28;20779;-85
2024/04/05 09:28:13;;;;;;;1999.90;999.90;;;;;;;;;;5031286;28;20045;-83
2024/04/05 09:30:39;;;;;;;1999.90;999.90;;;;;;;;;;5036065;28;20106;-84
2024/04/05 09:33:05;;;;;;;1999.90;999.90;;;;;;;;;;5031257;28;20052;-83
2024/04/05 09:35:32;;;;;;;1999.90;999.90;;;;;;;;;;5025822;28;20141;-84
2024/04/05 09:37:58;;;;;;;1999.90;999.90;;;;;;;;;;5032345;28;20049;-84
2024/04/05 09:40:26;;;;;;;1999.90;999.90;;;;;;;;;;5036303;28;20469;-84
2024/04/05 09:42:53;;;;;;;1999.90;999.90;;;;;;;;;;5027073;28;20077;-88
2024/04/05 09:45:21;;;;;;;1999.90;999.90;;;;;;;;;;5034488;28;20055;-86
2024/04/05 09:47:48;;;;;;;1999.90;999.90;;;;;;;;;;5033255;28;20049;-87
2024/04/05 09:50:15;;;;;;;1999.90;999.90;;;;;;;;;;5035925;28;20136;-86
2024/04/05 09:52:43;;;;;;;1999.90;999.90;;;;;;;;;;5036814;28;20050;-88
2024/04/05 09:55:13;;;;;;;1999.90;999.90;;;;;;;;;;5036129;28;20048;-86
2024/04/05 09:57:39;;;;;;;1999.90;999.90;;;;;;;;;;5029936;28;20056;-87
2024/04/05 10:00:14;;;;;;;1999.90;999.90;;;;;;;;;;5038412;28;20048;-85
2024/04/05 10:02:41;;;;;;;1999.90;999.90;;;;;;;;;;5036023;28;20045;-87
2024/04/05 10:05:07;;;;;;;1999.90;999.90;;;;;;;;;;5036616;28;20073;-85
2024/04/05 10:07:33;;;;;;;1999.90;999.90;;;;;;;;;;5032847;28;20140;-85
2024/04/05 10:10:08;;;;;;;1999.90;999.90;;;;;;;;;;5034058;28;20132;-85
2024/04/05 10:12:34;;;;;;;;;;;;;;;;;;5036485;28;20060;-85
2024/04/05 10:15:02;;;;;;;;;;;;;;;;;;5037067;28;19920;-86
2024/04/05 10:17:29;;;;;;;1999.90;999.90;;;;;;;;;;5031729;28;19921;-85
2024/04/05 10:20:05;;;;;;;1999.90;999.90;;;;;;;;;;5024389;28;20082;-85
2024/04/05 10:22:32;;;;;;;1999.90;999.90;;;;;;;;;;5030251;28;20074;-86
2024/04/05 10:24:58;;;;;;;1999.90;999.90;;;;;;;;;;5037332;28;20064;-86
2024/04/05 10:27:26;;;;;;;1999.90;999.90;;;;;;;;;;5035060;28;20143;-85
2024/04/05 10:30:00;;;;;;;1999.90;999.90;;;;;;;;;;5045678;28;20761;-85
2024/04/05 10:32:28;;;;;;;1999.90;999.90;;;;;;;;;;5034336;28;20053;-85
2024/04/05 10:35:06;;;;;;;1999.90;999.90;;;;;;;;;;5034167;28;20056;-85
2024/04/05 10:37:32;;;;;;;1999.90;999.90;;;;;;;;;;5039302;28;20058;-85
2024/04/05 10:40:03;;;;;;;1999.90;999.90;;;;;;;;;;5034208;28;20052;-85
2024/04/05 10:42:29;;;;;;;1999.90;999.90;;;;;;;;;;5034606;28;20074;-85
2024/04/05 10:44:57;;;;;;;1999.90;999.90;;;;;;;;;;5035600;28;20418;-85
2024/04/05 10:47:24;;;;;;;1999.90;999.90;;;;;;;;;;5032556;28;20392;-85
2024/04/05 10:50:00;;;;;;;1999.90;999.90;;;;;;;;;;5040449;28;20049;-80
2024/04/05 10:52:25;;;;;;;1999.90;999.90;;;;;;;;;;5040149;28;20574;-80
2024/04/05 10:54:52;;;;;;;1999.90;999.90;;;;;;;;;;5036527;28;20049;-79
2024/04/05 10:57:19;;;;;;;1999.90;999.90;;;;;;;;;;5037636;28;20136;-79
2024/04/05 10:59:46;;;;;;;1999.90;999.90;;;;;;;;;;5029640;28;20045;-79
2024/04/05 11:02:11;;;;;;;1999.90;999.90;;;;;;;;;;5035947;28;20103;-79
2024/04/05 11:04:39;;;;;;;1999.90;999.90;;;;;;;;;;5036367;28;20411;-79
2024/04/05 11:07:06;;;;;;;1999.90;999.90;;;;;;;;;;5027919;28;20567;-79
2024/04/05 11:09:35;;;;;;;1999.90;999.90;;;;;;;;;;5027666;28;20053;-79
2024/04/05 11:12:02;;;;;;;1999.90;999.90;;;;;;;;;;5028741;28;20042;-80
2024/04/05 11:14:28;;;;;;;1999.90;999.90;;;;;;;;;;5027885;28;20129;-80
2024/04/05 11:16:58;;;;;;;1999.90;999.90;;;;;;;;;;5040443;28;20136;-79
2024/04/05 11:19:26;;;;;;;1999.90;999.90;;;;;;;;;;5035809;28;20793;-79
2024/04/05 11:21:51;;;;;;;1999.90;999.90;;;;;;;;;;5029223;28;20519;-79
2024/04/05 11:24:19;;;;;;;1999.90;999.90;;;;;;;;;;5041575;28;20050;-80
2024/04/05 11:26:49;;;;;;;1999.90;999.90;;;;;;;;;;5034276;28;20050;-81
2024/04/05 11:29:17;;;;;;;1999.90;999.90;;;;;;;;;;5051178;28;20127;-81
2024/04/05 11:31:42;;;;;;;1999.90;999.90;;;;;;;;;;5051632;28;20056;-81
2024/04/05 11:34:09;;;;;;;1999.90;999.90;;;;;;;;;;5035649;28;20049;-81
2024/04/05 11:36:35;;;;;;;1999.90;999.90;;;;;;;;;;5032528;28;20136;-81
2024/04/05 11:39:02;;;;;;;1999.90;999.90;;;;;;;;;;5037869;28;20059;-81
2024/04/05 11:41:29;;;;;;;1999.90;999.90;;;;;;;;;;5040274;28;20135;-82
2024/04/05 11:43:56;;;;;;;1999.90;999.90;;;;;;;;;;5031172;28;20547;-81
2024/04/05 11:46:23;;;;;;;1999.90;999.90;;;;;;;;;;5033331;28;20061;-81
2024/04/05 11:48:50;;;;;;;1999.90;999.90;;;;;;;;;;5037728;28;20052;-80
2024/04/05 11:51:15;;;;;;;1999.90;999.90;;;;;;;;;;5039571;28;20049;-81
2024/04/05 11:53:42;;;;;;;1999.90;999.90;;;;;;;;;;5033715;28;20065;-81
2024/04/05 11:56:08;;;;;;;1999.90;999.90;;;;;;;;;;5031382;28;20557;-81
2024/04/05 11:58:36;;;;;;;1999.90;999.90;;;;;;;;;;5027171;28;20136;-82
2024/04/05 12:01:02;;;;;;;1999.90;999.90;;;;;;;;;;5031205;28;20274;-83
2024/04/05 12:03:29;;;;;;;1999.90;999.90;;;;;;;;;;5032746;28;20050;-82
2024/04/05 12:05:55;;;;;;;1999.90;999.90;;;;;;;;;;5039022;28;20059;-81
2024/04/05 12:08:22;;;;;;;1999.90;999.90;;;;;;;;;;5038450;28;20052;-82
2024/04/05 12:10:48;;;;;;;1999.90;999.90;;;;;;;;;;5036579;28;20049;-81
2024/04/05 12:13:14;;;;;;;1999.90;999.90;;;;;;;;;;5036796;28;20058;-82
2024/04/05 12:15:43;;;;;;;1999.90;999.90;;;;;;;;;;5034134;28;20049;-81
2024/04/05 12:18:10;;;;;;;1999.90;999.90;;;;;;;;;;5034252;28;20124;-82
2024/04/05 12:20:36;;;;;;;1999.90;999.90;;;;;;;;;;5031424;28;20064;-82
2024/04/05 12:23:03;;;;;;;1999.90;999.90;;;;;;;;;;5030025;28;20050;-81
2024/04/05 12:25:28;;;;;;;1999.90;999.90;;;;;;;;;;5034759;28;20053;-85
2024/04/05 12:27:55;;;;;;;1999.90;999.90;;;;;;;;;;5030339;28;20418;-83
2024/04/05 12:30:21;;;;;;;1999.90;999.90;;;;;;;;;;5030859;28;20049;-82
2024/04/05 12:32:48;;;;;;;1999.90;999.90;;;;;;;;;;5031308;28;20391;-84
2024/04/05 12:35:15;;;;;;;1999.90;999.90;;;;;;;;;;5031888;28;20049;-82
2024/04/05 12:37:42;;;;;;;1999.90;999.90;;;;;;;;;;5030193;28;20061;-81
2024/04/05 12:40:17;;;;;;;1999.90;999.90;;;;;;;;;;5025879;28;20057;-83
2024/04/05 12:42:44;;;;;;;1999.90;999.90;;;;;;;;;;5034079;28;20511;-82
2024/04/05 12:45:12;;;;;;;1999.90;999.90;;;;;;;;;;5037695;28;20052;-83
2024/04/05 12:47:38;;;;;;;1999.90;999.90;;;;;;;;;;5031334;28;20055;-81
2024/04/05 12:50:07;;;;;;;1999.90;999.90;;;;;;;;;;5028404;28;20049;-85
2024/04/05 12:52:34;;;;;;;1999.90;999.90;;;;;;;;;;5023619;28;20137;-83
2024/04/05 13:15:35;;;;;;;1999.90;999.90;;;;;;;;;;5009976;28;20184;-84
2024/04/05 13:18:02;;;;;;;1999.90;999.90;;;;;;;;;;5027764;28;20041;-85
2024/04/05 13:20:29;;;;;;;1999.90;999.90;;;;;;;;;;5035655;28;20080;-85
2024/04/05 13:22:54;;;;;;;1999.90;999.90;;;;;;;;;;5037722;28;20053;-85
2024/04/05 13:25:21;;;;;;;1999.90;999.90;;;;;;;;;;5030640;28;20061;-83
2024/04/05 13:27:47;;;;;;;1999.90;999.90;;;;;;;;;;5035564;28;20060;-84
2024/04/05 13:30:14;;;;;;;1999.90;999.90;;;;;;;;;;5040122;28;20055;-84
2024/04/05 13:32:41;;;;;;;1999.90;999.90;;;;;;;;;;5041757;28;20414;-83
2024/04/05 13:35:09;;;;;;;1999.90;999.90;;;;;;;;;;5030996;28;20136;-83
2024/04/05 13:37:36;;;;;;;1999.90;999.90;;;;;;;;;;5034596;28;20065;-84
2024/04/05 13:40:04;;;;;;;1999.90;999.90;;;;;;;;;;5039433;28;20068;-84
2024/04/05 13:42:30;;;;;;;1999.90;999.90;;;;;;;;;;5036724;28;20057;-86
2024/04/05 13:44:57;;;;;;;1999.90;999.90;;;;;;;;;;5035378;28;20053;-84
2024/04/05 13:47:22;;;;;;;1999.90;999.90;;;;;;;;;;5037904;28;20085;-82
2024/04/05 13:49:50;;;;;;;1999.90;999.90;;;;;;;;;;5040450;28;20460;-84
2024/04/05 13:52:16;;;;;;;1999.90;999.90;;;;;;;;;;5032413;28;20508;-81
2024/04/05 13:54:42;;;;;;;1999.90;999.90;;;;;;;;;;5042872;28;20092;-82
2024/04/05 13:57:08;;;;;;;1999.90;999.90;;;;;;;;;;5034722;28;20049;-83
2024/04/05 13:59:34;;;;;;;1999.90;999.90;;;;;;;;;;5031459;28;20049;-83
2024/04/05 14:02:00;;;;;;;1999.90;999.90;;;;;;;;;;5036353;28;20156;-83